Time;durP1;ratioP1;P1;durP2;ratioP2;P2;SDS_P1;SDS_P2;PMS_P1;PMS_P2;Temp;Humidity;BMP_temperature;BMP_pressure;BME280_temperature;BME280_humidity;BME280_pressure;Samples;Min_cycle;Max_cycle;Signal;HPM_P1;HPM_P2
2022/12/17 13:06:52;;;;;;;5.00;2.45;;;;;;;;;;5002860;28;20042;-65
2022/12/17 13:09:28;;;;;;;10.15;3.03;;;;;;;;;;4999508;28;20057;-63
2022/12/17 13:11:59;;;;;;;7.10;3.10;;;;;;;;;;5002508;28;20046;-62
2022/12/17 13:14:42;;;;;;;7.68;3.20;;;;;;;;;;4997970;28;20058;-65
2022/12/17 13:17:17;;;;;;;5.03;2.90;;;;;;;;;;4992439;28;20081;-64
2022/12/17 13:19:57;;;;;;;4.47;2.53;;;;;;;;;;4998063;28;20038;-65
2022/12/17 13:22:26;;;;;;;9.07;2.50;;;;;;;;;;4997325;28;20045;-62
2022/12/17 13:25:14;;;;;;;5.80;2.70;;;;;;;;;;4999694;28;20580;-62
2022/12/17 13:27:41;;;;;;;7.30;2.22;;;;;;;;;;4994524;28;20050;-63
2022/12/17 13:30:20;;;;;;;4.78;2.47;;;;;;;;;;5002468;28;20049;-64
2022/12/17 13:33:01;;;;;;;9.05;2.22;;;;;;;;;;4997807;28;20069;-66
2022/12/17 13:35:54;;;;;;;8.73;3.00;;;;;;;;;;4994895;28;20057;-63
2022/12/17 13:38:47;;;;;;;8.25;2.55;;;;;;;;;;4993724;28;20058;-63
2022/12/17 13:41:16;;;;;;;4.00;1.88;;;;;;;;;;4995458;28;20168;-70
2022/12/17 13:43:52;;;;;;;5.88;2.38;;;;;;;;;;5000479;28;20033;-69
2022/12/17 13:46:42;;;;;;;5.70;2.20;;;;;;;;;;4997981;28;20061;-63
2022/12/17 13:49:28;;;;;;;4.95;2.33;;;;;;;;;;5005237;28;20065;-63
2022/12/17 13:52:18;;;;;;;6.97;1.90;;;;;;;;;;5001004;28;20054;-63
2022/12/17 13:54:44;;;;;;;5.07;1.70;;;;;;;;;;5003969;28;20111;-68
2022/12/17 13:57:29;;;;;;;7.05;2.17;;;;;;;;;;5002919;28;20125;-64
2022/12/17 14:00:01;;;;;;;8.07;2.25;;;;;;;;;;4995635;28;20136;-64
2022/12/17 14:02:35;;;;;;;4.15;1.77;;;;;;;;;;4992197;28;20046;-64
2022/12/17 14:05:04;;;;;;;5.45;2.20;;;;;;;;;;4995608;28;20050;-70
2022/12/17 14:07:33;;;;;;;5.82;2.70;;;;;;;;;;5001208;28;20050;-65
2022/12/17 14:10:01;;;;;;;6.07;2.25;;;;;;;;;;4991351;28;20041;-68
2022/12/17 14:12:28;;;;;;;6.15;2.47;;;;;;;;;;4973676;28;20061;-66
2022/12/17 14:14:57;;;;;;;9.80;3.17;;;;;;;;;;4996693;28;20492;-65
2022/12/17 14:17:33;;;;;;;3.90;2.15;;;;;;;;;;4998048;28;20421;-60
2022/12/17 14:20:15;;;;;;;6.55;2.25;;;;;;;;;;4995643;28;20041;-64
2022/12/17 14:22:47;;;;;;;4.85;2.55;;;;;;;;;;4999749;28;20060;-64
2022/12/17 14:25:19;;;;;;;3.83;2.15;;;;;;;;;;4993266;28;20182;-64
2022/12/17 14:27:53;;;;;;;6.40;2.70;;;;;;;;;;4997068;28;20068;-63
2022/12/17 14:30:42;;;;;;;5.22;2.20;;;;;;;;;;5000860;28;20049;-66
2022/12/17 14:33:29;;;;;;;5.25;2.22;;;;;;;;;;4992255;28;20413;-63
2022/12/17 14:36:02;;;;;;;8.45;2.53;;;;;;;;;;4996049;28;20046;-65
2022/12/17 14:38:28;;;;;;;11.07;2.28;;;;;;;;;;4998944;28;20042;-64
2022/12/17 14:41:01;;;;;;;6.20;2.65;;;;;;;;;;4995162;28;20465;-65
2022/12/17 14:43:28;;;;;;;3.72;2.55;;;;;;;;;;4992252;28;20073;-66
2022/12/17 14:48:59;;;;;;;7.60;2.95;;;;;;;;;;4998000;28;20042;-66
2022/12/17 14:51:37;;;;;;;7.40;2.88;;;;;;;;;;4995698;28;20672;-65
2022/12/17 14:54:33;;;;;;;10.40;2.95;;;;;;;;;;4990690;28;20046;-62
2022/12/17 14:56:59;;;;;;;5.15;3.10;;;;;;;;;;4995221;28;20133;-63
2022/12/17 14:59:36;;;;;;;6.55;3.50;;;;;;;;;;4992786;28;20066;-63
2022/12/17 15:02:09;;;;;;;9.95;3.50;;;;;;;;;;4990954;28;20061;-64
2022/12/17 15:04:37;;;;;;;8.60;3.47;;;;;;;;;;4992528;28;20153;-68
2022/12/17 15:07:04;;;;;;;8.40;3.42;;;;;;;;;;4997891;28;20054;-63
2022/12/17 15:09:40;;;;;;;9.40;3.25;;;;;;;;;;4995672;28;20054;-66
2022/12/17 15:12:06;;;;;;;8.15;3.40;;;;;;;;;;4996911;28;20132;-67
2022/12/17 15:14:32;;;;;;;10.43;5.40;;;;;;;;;;4993820;28;20129;-66
2022/12/17 15:17:00;;;;;;;8.23;3.53;;;;;;;;;;4997106;28;20124;-67
2022/12/17 15:19:26;;;;;;;10.45;3.92;;;;;;;;;;5000104;28;20057;-65
2022/12/17 15:21:52;;;;;;;5.43;3.63;;;;;;;;;;5000970;28;20422;-64
2022/12/17 15:24:19;;;;;;;12.13;4.13;;;;;;;;;;5003583;28;20057;-64
2022/12/17 15:26:46;;;;;;;6.25;3.10;;;;;;;;;;5002961;28;20061;-65
2022/12/17 15:29:12;;;;;;;9.45;4.00;;;;;;;;;;5006156;28;20048;-68
2022/12/17 15:31:38;;;;;;;8.48;3.20;;;;;;;;;;5009161;28;20042;-67
2022/12/17 15:34:05;;;;;;;7.53;2.75;;;;;;;;;;5007752;28;20136;-67
2022/12/17 15:36:31;;;;;;;9.38;3.13;;;;;;;;;;5003340;28;20180;-66
2022/12/17 15:38:58;;;;;;;5.68;2.42;;;;;;;;;;5006662;28;20046;-66
2022/12/17 15:44:08;;;;;;;6.18;2.47;;;;;;;;;;5009379;28;20620;-65
2022/12/17 15:46:34;;;;;;;4.75;2.30;;;;;;;;;;5007932;28;20117;-66
2022/12/17 15:49:02;;;;;;;9.40;2.78;;;;;;;;;;4986614;28;20046;-65
2022/12/17 15:51:28;;;;;;;6.50;2.88;;;;;;;;;;5006808;28;20042;-66
2022/12/17 15:53:54;;;;;;;5.97;2.70;;;;;;;;;;4996407;28;20064;-70
2022/12/17 15:56:25;;;;;;;5.10;2.58;;;;;;;;;;5004787;28;20049;-64
2022/12/17 15:58:51;;;;;;;6.45;2.40;;;;;;;;;;5005678;28;20053;-66
2022/12/17 16:01:18;;;;;;;5.25;2.47;;;;;;;;;;5009001;28;20055;-66
2022/12/17 16:03:44;;;;;;;6.75;2.20;;;;;;;;;;5008628;28;20756;-65
2022/12/17 16:06:10;;;;;;;6.97;2.22;;;;;;;;;;5005901;28;20424;-65
2022/12/17 16:08:38;;;;;;;6.10;2.40;;;;;;;;;;5004042;28;20041;-65
2022/12/17 16:11:08;;;;;;;10.35;2.58;;;;;;;;;;5009245;28;20053;-66
2022/12/17 16:13:35;;;;;;;5.97;2.35;;;;;;;;;;5006535;28;20042;-63
2022/12/17 16:16:01;;;;;;;5.65;2.47;;;;;;;;;;5005882;28;20144;-64
2022/12/17 16:18:28;;;;;;;4.53;2.08;;;;;;;;;;5000047;28;20093;-64
2022/12/17 16:20:53;;;;;;;5.88;2.30;;;;;;;;;;5008717;28;20277;-66
2022/12/17 16:23:20;;;;;;;4.13;2.15;;;;;;;;;;5006444;28;20107;-64
2022/12/17 16:26:06;;;;;;;6.72;2.60;;;;;;;;;;5009185;28;20054;-64
2022/12/17 16:28:33;;;;;;;7.63;2.53;;;;;;;;;;5006064;28;20392;-66
2022/12/17 16:31:08;;;;;;;6.72;2.75;;;;;;;;;;5000258;28;20387;-65
2022/12/17 16:33:36;;;;;;;4.65;2.00;;;;;;;;;;5002812;28;20058;-65
2022/12/17 16:36:04;;;;;;;9.02;2.10;;;;;;;;;;5005845;28;20286;-65
2022/12/17 16:38:30;;;;;;;7.30;1.80;;;;;;;;;;4997256;28;20267;-66
2022/12/17 16:40:58;;;;;;;6.60;1.90;;;;;;;;;;5002677;28;20041;-66
2022/12/17 16:43:25;;;;;;;6.72;2.17;;;;;;;;;;5003374;28;20085;-65
2022/12/17 16:45:52;;;;;;;4.18;2.10;;;;;;;;;;5004307;28;20041;-66
2022/12/17 16:48:20;;;;;;;5.70;2.00;;;;;;;;;;4985213;28;20053;-66
2022/12/17 16:50:46;;;;;;;6.97;2.55;;;;;;;;;;5004872;28;20080;-66
2022/12/17 16:53:13;;;;;;;5.72;2.05;;;;;;;;;;5005149;28;20046;-66
2022/12/17 16:55:40;;;;;;;8.98;2.10;;;;;;;;;;5001817;28;20046;-65
2022/12/17 16:58:06;;;;;;;6.13;2.63;;;;;;;;;;5004474;28;20046;-65
2022/12/17 17:00:33;;;;;;;5.65;1.88;;;;;;;;;;5002901;28;20045;-64
2022/12/17 17:02:59;;;;;;;7.30;2.10;;;;;;;;;;5004612;28;20057;-64
2022/12/17 17:05:25;;;;;;;7.75;2.13;;;;;;;;;;5005516;28;20555;-63
2022/12/17 17:07:51;;;;;;;4.72;1.80;;;;;;;;;;5009278;28;20042;-64
2022/12/17 17:10:17;;;;;;;3.50;2.10;;;;;;;;;;5002312;28;20471;-64
2022/12/17 17:12:43;;;;;;;3.65;2.15;;;;;;;;;;5003083;28;20064;-65
2022/12/17 17:15:09;;;;;;;6.65;2.78;;;;;;;;;;5002791;28;20046;-65
2022/12/17 17:17:35;;;;;;;10.57;2.88;;;;;;;;;;5003773;28;20050;-64
2022/12/17 17:20:01;;;;;;;6.75;3.10;;;;;;;;;;5006686;28;20064;-66
2022/12/17 17:22:27;;;;;;;4.95;2.35;;;;;;;;;;5006071;28;20061;-65
2022/12/17 17:24:53;;;;;;;5.85;2.33;;;;;;;;;;5006947;28;20486;-66
2022/12/17 17:27:19;;;;;;;5.68;2.30;;;;;;;;;;5001752;28;20042;-64
2022/12/17 17:29:45;;;;;;;5.10;2.80;;;;;;;;;;5004982;28;20543;-63
2022/12/17 17:32:11;;;;;;;8.20;2.35;;;;;;;;;;4996818;28;20591;-63
2022/12/17 17:34:38;;;;;;;6.15;2.50;;;;;;;;;;5002662;28;20243;-65
2022/12/17 17:37:04;;;;;;;7.57;2.65;;;;;;;;;;4997109;28;20046;-64
2022/12/17 17:39:31;;;;;;;5.15;2.20;;;;;;;;;;5001814;28;20386;-64
2022/12/17 17:41:58;;;;;;;5.65;2.28;;;;;;;;;;4997538;28;20056;-68
2022/12/17 17:44:23;;;;;;;6.35;2.15;;;;;;;;;;5000403;28;20046;-65
2022/12/17 17:46:49;;;;;;;8.07;2.72;;;;;;;;;;4995829;28;20056;-65
2022/12/17 17:49:15;;;;;;;6.38;2.20;;;;;;;;;;4991497;28;20064;-66
2022/12/17 17:51:43;;;;;;;9.02;2.38;;;;;;;;;;4997173;28;20502;-64
2022/12/17 17:54:09;;;;;;;4.78;2.40;;;;;;;;;;4998292;28;20042;-63
2022/12/17 17:56:37;;;;;;;6.07;2.63;;;;;;;;;;4995404;28;20060;-63
2022/12/17 17:59:10;;;;;;;9.80;3.80;;;;;;;;;;5002033;28;20050;-65
2022/12/17 18:01:38;;;;;;;8.77;2.90;;;;;;;;;;4999923;28;20042;-65
2022/12/17 18:04:06;;;;;;;5.55;2.20;;;;;;;;;;4995836;28;20046;-60
2022/12/17 18:06:35;;;;;;;11.25;2.70;;;;;;;;;;4994185;28;20104;-66
2022/12/17 18:09:01;;;;;;;7.22;2.72;;;;;;;;;;4973519;28;20046;-65
2022/12/17 18:11:29;;;;;;;4.22;1.60;;;;;;;;;;4994212;28;20064;-66
2022/12/17 18:13:56;;;;;;;10.63;2.40;;;;;;;;;;5004320;28;20757;-65
2022/12/17 18:16:49;;;;;;;5.75;2.33;;;;;;;;;;4990734;28;20046;-65
2022/12/17 18:19:20;;;;;;;4.35;2.10;;;;;;;;;;4989939;28;20417;-65
2022/12/17 18:21:47;;;;;;;11.57;2.65;;;;;;;;;;4994693;28;20531;-63
2022/12/17 18:24:18;;;;;;;7.72;2.60;;;;;;;;;;4996960;28;20524;-65
2022/12/17 18:26:46;;;;;;;7.30;2.58;;;;;;;;;;4994203;28;20049;-65
2022/12/17 18:29:14;;;;;;;8.63;2.80;;;;;;;;;;4992382;28;20368;-67
2022/12/17 18:31:40;;;;;;;5.85;2.50;;;;;;;;;;4988973;28;20045;-66
2022/12/17 18:34:09;;;;;;;6.78;2.83;;;;;;;;;;4993386;28;20092;-68
2022/12/17 18:36:38;;;;;;;7.82;2.72;;;;;;;;;;4994026;28;20050;-65
2022/12/17 18:39:12;;;;;;;7.43;2.60;;;;;;;;;;4993955;28;20579;-68
2022/12/17 18:44:24;;;;;;;3.92;1.98;;;;;;;;;;4992470;28;20061;-65
2022/12/17 18:46:50;;;;;;;6.43;2.47;;;;;;;;;;4973893;28;20107;-69
2022/12/17 18:49:17;;;;;;;7.80;2.58;;;;;;;;;;4995702;28;20038;-65
2022/12/17 18:51:46;;;;;;;12.35;4.95;;;;;;;;;;4995261;28;20514;-68
2022/12/17 18:54:17;;;;;;;12.80;4.70;;;;;;;;;;4996439;28;20054;-69
2022/12/17 18:56:44;;;;;;;11.63;5.25;;;;;;;;;;4998392;28;20477;-67
2022/12/17 18:59:15;;;;;;;11.25;4.60;;;;;;;;;;4996348;28;20429;-65
2022/12/17 19:01:42;;;;;;;10.98;5.00;;;;;;;;;;4995776;28;20056;-64
2022/12/17 19:04:11;;;;;;;15.68;4.93;;;;;;;;;;4991776;28;20132;-64
2022/12/17 19:06:38;;;;;;;6.65;4.30;;;;;;;;;;4998914;28;20120;-67
2022/12/17 19:09:06;;;;;;;7.22;3.30;;;;;;;;;;4995917;28;20514;-64
2022/12/17 19:11:33;;;;;;;7.63;3.42;;;;;;;;;;4998404;28;20528;-64
2022/12/17 19:14:00;;;;;;;8.30;3.90;;;;;;;;;;5000275;28;20473;-63
2022/12/17 19:16:28;;;;;;;11.63;4.18;;;;;;;;;;4991269;28;20055;-64
2022/12/17 19:19:02;;;;;;;9.73;4.45;;;;;;;;;;5000519;28;20054;-63
2022/12/17 19:21:30;;;;;;;12.27;5.25;;;;;;;;;;5003787;28;20034;-64
2022/12/17 19:23:57;;;;;;;9.45;4.63;;;;;;;;;;5005917;28;20069;-63
2022/12/17 19:26:24;;;;;;;11.30;5.22;;;;;;;;;;4999086;28;20061;-63
2022/12/17 19:28:52;;;;;;;11.77;5.35;;;;;;;;;;5000488;28;20045;-63
2022/12/17 19:31:21;;;;;;;7.60;4.60;;;;;;;;;;4999826;28;20061;-65
2022/12/17 19:33:47;;;;;;;10.93;4.82;;;;;;;;;;4999455;28;20076;-64
2022/12/17 19:36:17;;;;;;;10.57;4.40;;;;;;;;;;5000055;28;20058;-69
2022/12/17 19:38:44;;;;;;;11.85;4.65;;;;;;;;;;5002990;28;20056;-63
2022/12/17 19:41:16;;;;;;;12.80;5.75;;;;;;;;;;5003495;28;20046;-64
2022/12/17 19:43:46;;;;;;;12.80;5.03;;;;;;;;;;5001035;28;20042;-66
2022/12/17 19:46:15;;;;;;;9.85;4.38;;;;;;;;;;4997962;28;20046;-65
2022/12/17 19:48:42;;;;;;;13.25;5.07;;;;;;;;;;5005169;28;21233;-64
2022/12/17 19:51:10;;;;;;;10.27;5.10;;;;;;;;;;4990977;28;20061;-64
2022/12/17 19:53:37;;;;;;;12.25;5.60;;;;;;;;;;4997273;28;20038;-63
2022/12/17 19:56:19;;;;;;;11.35;5.70;;;;;;;;;;4994602;28;20049;-63
2022/12/17 19:58:47;;;;;;;13.98;5.78;;;;;;;;;;4994754;28;20050;-63
2022/12/17 20:01:16;;;;;;;16.67;5.95;;;;;;;;;;4993158;28;20061;-64
2022/12/17 20:03:43;;;;;;;11.82;5.35;;;;;;;;;;5005513;28;20073;-65
2022/12/17 20:06:11;;;;;;;13.18;5.05;;;;;;;;;;5003204;28;20050;-65
2022/12/17 20:08:37;;;;;;;9.82;3.70;;;;;;;;;;5000197;28;20054;-64
2022/12/17 20:11:31;;;;;;;8.30;4.10;;;;;;;;;;5005661;28;20054;-66
2022/12/17 20:14:09;;;;;;;10.45;4.07;;;;;;;;;;5001759;28;20782;-64
2022/12/17 20:16:37;;;;;;;;;;;;;;;;;;4993348;28;20054;-62
2022/12/17 20:19:09;;;;;;;14.30;6.22;;;;;;;;;;4983633;28;20005;-66
2022/12/17 20:21:36;;;;;;;10.40;4.30;;;;;;;;;;5001130;28;20418;-64
2022/12/17 20:24:02;;;;;;;8.10;3.30;;;;;;;;;;5003953;28;20046;-62
2022/12/17 20:26:28;;;;;;;11.82;3.30;;;;;;;;;;4993702;28;20050;-62
2022/12/17 20:28:54;;;;;;;5.95;2.80;;;;;;;;;;4997695;28;20049;-64
2022/12/17 20:31:20;;;;;;;4.97;2.75;;;;;;;;;;4996871;28;20497;-64
2022/12/17 20:33:47;;;;;;;9.93;4.20;;;;;;;;;;4997761;28;20067;-63
2022/12/17 20:36:15;;;;;;;12.85;4.60;;;;;;;;;;5002339;28;20049;-64
2022/12/17 20:38:43;;;;;;;9.05;4.63;;;;;;;;;;4995495;28;20053;-64
2022/12/17 20:41:10;;;;;;;11.10;5.10;;;;;;;;;;4982959;28;20064;-65
2022/12/17 20:43:36;;;;;;;16.80;6.50;;;;;;;;;;5003920;28;20045;-64
2022/12/17 20:46:02;;;;;;;15.55;6.85;;;;;;;;;;4994678;28;20061;-65
2022/12/17 20:48:28;;;;;;;16.10;6.60;;;;;;;;;;5003798;28;20106;-66
2022/12/17 20:50:54;;;;;;;15.52;7.07;;;;;;;;;;5003306;28;20053;-65
2022/12/17 20:53:20;;;;;;;13.73;5.65;;;;;;;;;;4992722;28;20049;-63
2022/12/17 20:55:46;;;;;;;16.15;5.60;;;;;;;;;;5001018;28;20053;-65
2022/12/17 20:58:12;;;;;;;15.43;6.28;;;;;;;;;;4998300;28;20053;-66
2022/12/17 21:00:39;;;;;;;15.05;6.65;;;;;;;;;;5003800;28;20046;-66
2022/12/17 21:03:05;;;;;;;16.85;6.97;;;;;;;;;;5001593;28;20041;-62
2022/12/17 21:05:34;;;;;;;29.65;8.75;;;;;;;;;;4999603;28;20119;-63
2022/12/17 21:08:00;;;;;;;16.17;7.68;;;;;;;;;;4999891;28;20104;-66
2022/12/17 21:10:26;;;;;;;17.23;7.47;;;;;;;;;;5003224;28;20068;-65
2022/12/17 21:15:36;;;;;;;18.35;7.68;;;;;;;;;;4992760;28;20062;-62
2022/12/17 21:18:02;;;;;;;22.55;9.43;;;;;;;;;;5001416;28;20111;-63
2022/12/17 21:20:28;;;;;;;20.05;9.13;;;;;;;;;;5000265;28;20567;-66
2022/12/17 21:22:54;;;;;;;23.50;9.68;;;;;;;;;;4999243;28;20041;-65
2022/12/17 21:25:20;;;;;;;28.90;9.63;;;;;;;;;;4996477;28;20053;-65
2022/12/17 21:27:46;;;;;;;22.15;9.50;;;;;;;;;;5006187;28;20045;-64
2022/12/17 21:30:15;;;;;;;20.48;9.23;;;;;;;;;;5002942;28;20045;-65
2022/12/17 21:32:41;;;;;;;19.33;9.60;;;;;;;;;;4994693;28;20542;-65
2022/12/17 21:35:07;;;;;;;21.95;9.85;;;;;;;;;;4999592;28;20049;-62
2022/12/17 21:37:33;;;;;;;20.67;11.00;;;;;;;;;;5003397;28;20047;-64
2022/12/17 21:40:00;;;;;;;20.40;11.13;;;;;;;;;;5002328;28;20053;-64
2022/12/17 21:45:11;;;;;;;;;;;;;;;;;;4984480;28;20053;-65
2022/12/17 21:47:37;;;;;;;26.13;10.48;;;;;;;;;;4992496;28;19972;-65
2022/12/17 21:50:03;;;;;;;19.58;10.65;;;;;;;;;;4994597;28;20110;-65
2022/12/17 21:52:29;;;;;;;27.60;10.95;;;;;;;;;;4999733;28;20050;-65
2022/12/17 21:54:55;;;;;;;26.55;12.90;;;;;;;;;;4995822;28;20100;-66
2022/12/17 21:57:20;;;;;;;23.08;12.40;;;;;;;;;;4998075;28;20050;-67
2022/12/17 21:59:46;;;;;;;29.75;14.98;;;;;;;;;;5001618;28;20405;-64
2022/12/17 22:02:13;;;;;;;33.47;13.35;;;;;;;;;;5002238;28;20132;-67
2022/12/17 22:04:38;;;;;;;28.08;14.75;;;;;;;;;;4992602;28;20052;-65
2022/12/17 22:07:04;;;;;;;26.33;12.23;;;;;;;;;;4993978;28;20050;-65
2022/12/17 22:09:30;;;;;;;23.77;12.13;;;;;;;;;;5003288;28;20048;-66
2022/12/17 22:14:43;;;;;;;21.15;12.15;;;;;;;;;;4994235;28;20053;-68
2022/12/17 22:17:09;;;;;;;29.83;13.63;;;;;;;;;;4991168;28;20046;-64
2022/12/17 22:19:35;;;;;;;22.92;13.95;;;;;;;;;;5001302;28;20045;-65
2022/12/17 22:22:01;;;;;;;22.17;12.27;;;;;;;;;;4988040;28;20053;-66
2022/12/17 22:24:26;;;;;;;30.52;13.05;;;;;;;;;;5000576;28;20104;-66
2022/12/17 22:26:59;;;;;;;22.58;13.05;;;;;;;;;;5002697;28;20501;-64
2022/12/17 22:34:57;;;;;;;24.60;13.65;;;;;;;;;;4994769;28;20056;-68
2022/12/17 22:37:24;;;;;;;26.27;13.38;;;;;;;;;;4996654;28;20477;-64
2022/12/17 22:39:49;;;;;;;24.42;13.77;;;;;;;;;;4993669;28;20099;-66
2022/12/17 22:45:00;;;;;;;27.13;14.85;;;;;;;;;;4999716;28;20054;-65
2022/12/17 22:47:26;;;;;;;26.83;14.75;;;;;;;;;;4996192;28;20042;-66
2022/12/17 22:49:51;;;;;;;30.80;14.35;;;;;;;;;;4997862;28;20077;-62
2022/12/17 22:52:17;;;;;;;27.73;14.50;;;;;;;;;;4995160;28;20160;-63
2022/12/17 22:54:43;;;;;;;25.75;14.10;;;;;;;;;;5000059;28;20453;-65
2022/12/17 22:57:09;;;;;;;25.85;14.68;;;;;;;;;;4995112;28;20050;-65
2022/12/17 22:59:35;;;;;;;25.08;15.32;;;;;;;;;;4995092;28;20108;-63
2022/12/17 23:02:01;;;;;;;30.35;15.68;;;;;;;;;;4996221;28;20046;-64
2022/12/17 23:04:27;;;;;;;27.10;15.27;;;;;;;;;;4979379;28;20042;-65
2022/12/17 23:06:53;;;;;;;25.23;15.23;;;;;;;;;;5002793;28;20318;-66
2022/12/17 23:09:19;;;;;;;31.60;14.75;;;;;;;;;;5005125;28;20088;-63
2022/12/17 23:11:47;;;;;;;26.15;13.93;;;;;;;;;;5004197;28;20497;-65
2022/12/17 23:14:13;;;;;;;25.88;13.95;;;;;;;;;;5003698;28;20381;-64
2022/12/17 23:16:39;;;;;;;24.23;14.48;;;;;;;;;;5001064;28;20513;-63
2022/12/17 23:19:06;;;;;;;21.20;13.73;;;;;;;;;;4997765;28;20050;-63
2022/12/17 23:21:32;;;;;;;21.95;13.82;;;;;;;;;;5001699;28;20422;-64
2022/12/17 23:23:58;;;;;;;23.85;12.63;;;;;;;;;;5001574;28;20049;-66
2022/12/17 23:26:27;;;;;;;19.80;12.82;;;;;;;;;;4994919;28;20058;-65
2022/12/17 23:28:57;;;;;;;22.05;13.13;;;;;;;;;;4989026;28;20046;-65
2022/12/17 23:31:24;;;;;;;20.73;12.30;;;;;;;;;;4993117;28;20449;-65
2022/12/17 23:33:50;;;;;;;20.45;12.38;;;;;;;;;;4996628;28;20268;-66
2022/12/17 23:36:19;;;;;;;22.98;13.05;;;;;;;;;;4980843;28;20055;-66
2022/12/17 23:38:46;;;;;;;19.65;12.40;;;;;;;;;;5001173;28;20152;-65
2022/12/17 23:41:16;;;;;;;25.08;12.38;;;;;;;;;;4999564;28;20165;-64
2022/12/17 23:43:42;;;;;;;20.17;11.85;;;;;;;;;;4984662;28;20085;-65
2022/12/17 23:46:10;;;;;;;19.77;11.07;;;;;;;;;;4986404;28;20489;-65
2022/12/17 23:48:39;;;;;;;21.80;11.55;;;;;;;;;;4993631;28;20589;-64
2022/12/17 23:51:06;;;;;;;22.15;11.95;;;;;;;;;;4978512;28;20054;-64
2022/12/17 23:53:33;;;;;;;17.65;11.07;;;;;;;;;;4999196;28;20100;-65
2022/12/17 23:56:16;;;;;;;19.92;12.15;;;;;;;;;;5008556;28;20046;-64
2022/12/17 23:58:43;;;;;;;20.15;11.48;;;;;;;;;;5004720;28;20046;-64
